Elkton, OH (44415)

9:37 PM EDT on April 19, 2015 (GMT -0400)
OHDOT | | Change Station
CLOSE
Current Station
Personal Weather Station
Location: Lisbon, OH
Elevation: 1152 ft
Nearby Weather Stations

Elev 1152 ft 40.77 °N, 80.81 °W | Updated 27 minutes ago

Rain
Rain
52 °F
Feels Like 52 °F
N
6
Wind Variable Wind from SSW
Gusts 16.0 mph

Today
High -- | Low -- °F
--% Chance of Precip.
Yesterday
High -- | Low -- °F
Precip. -- in
6:38 AM 8:06 PM
New Moon, 2% visible
Pressure 29.74 in
Visibility 3.0 miles
Clouds Few 300 ft
Scattered Clouds 2600 ft
Mostly Cloudy 4000 ft
Dew Point 49 °F
Humidity 90%
Rainfall in
Snow Depth Not available.
UV 0 out of 12
Pollen 9.90 out of 12
Air Quality Not available.
Flu Activity Regional
SPECI KUCP 200122Z AUTO 11010G15KT 3SM -RA BR FEW003 SCT026 BKN040 12/11 A2974 RMK AO2 BKN V SCT P0004

More Conditions Fewer Conditions

Pressure 29.74 in
Visibility 3.0 miles
Clouds Few 300 ft
Scattered Clouds 2600 ft
Mostly Cloudy 4000 ft
Dew Point 49 °F
Humidity 90%
Rainfall in
Snow Depth Not available.
UV 0 out of 12
Pollen 9.90 out of 12
Air Quality Not available.
Flu Activity Regional
SPECI KUCP 200122Z AUTO 11010G15KT 3SM -RA BR FEW003 SCT026 BKN040 12/11 A2974 RMK AO2 BKN V SCT P0004

More Conditions Fewer Conditions

10-Day Weather Forecast

Almanac

Astronomy

Apr. 19, 2015 Rise Set
Actual Time
Civil Twilight
Nautical Twilight
Astronomical Twilight
Moon
Length of Visible Light
Length of Day
Tomorrow will be .
, % of the Moon is Illuminated

Today's Extremes

State Highs State Lows

Community

WunderPhotos

Upload Photos

1,815,083 photos uploaded!

WunderBlogs® & News

Nearby

Air Quality

  Air Quality AQ Index Pollutant
Not available.

Snow Depth

Station Depth Elevation

Earthquake Activity

City Distance Mag. Time & Date
Minimum magnitude displayed is 2.5.

Coastal Water Temperatures

Place Temperature

Stations

Nearby Weather Stations

Station Location Temp. Windchill Dew Point Humidity Wind Precip. Elev Updated Type